createdAt,value
2023-01-07T00:01:27.132Z,101185.88
2023-01-07T00:03:56.455Z,101181.22
2023-01-07T00:06:27.993Z,101187.34
2023-01-07T00:08:56.644Z,101191.81
2023-01-07T00:11:28.804Z,101194.34
2023-01-07T00:13:57.230Z,101185.88
2023-01-07T00:16:26.409Z,101192.47
2023-01-07T00:18:54.196Z,101189.28
2023-01-07T00:21:22.393Z,101191.19
2023-01-07T00:23:49.411Z,101190.53
2023-01-07T00:26:18.927Z,101194.38
2023-01-07T00:28:47.762Z,101190.94
2023-01-07T00:31:19.632Z,101185.03
2023-01-07T00:33:59.171Z,101182.88
2023-01-07T00:36:31.126Z,101168.47
2023-01-07T00:39:03.638Z,101163.41
2023-01-07T00:41:30.037Z,101167.63
2023-01-07T00:43:57.043Z,101161.91
2023-01-07T00:46:24.050Z,101168.88
2023-01-07T00:48:50.759Z,101165.28
2023-01-07T00:51:18.837Z,101158.72
2023-01-07T00:53:45.421Z,101165.69
2023-01-07T00:56:14.360Z,101170.13
2023-01-07T00:58:41.701Z,101180.50
2023-01-07T01:01:09.921Z,101172.25
2023-01-07T01:03:36.970Z,101176.06
2023-01-07T01:06:14.190Z,101170.53
2023-01-07T01:08:43.091Z,101166.09
2023-01-07T01:11:11.241Z,101165.47
2023-01-07T01:13:38.247Z,101166.50
2023-01-07T01:16:16.534Z,101152.72
2023-01-07T01:18:44.135Z,101149.13
2023-01-07T01:21:13.026Z,101136.22
2023-01-07T01:23:40.353Z,101141.72
2023-01-07T01:26:13.293Z,101137.06
2023-01-07T01:28:40.452Z,101138.75
2023-01-07T01:31:08.372Z,101141.28
2023-01-07T01:33:35.217Z,101136.44
2023-01-07T01:36:05.959Z,101136.25
2023-01-07T01:38:32.487Z,101137.06
2023-01-07T01:40:59.007Z,101139.44
2023-01-07T01:43:46.763Z,101145.56
2023-01-07T01:46:37.693Z,101142.19
2023-01-07T01:49:19.822Z,101154.25
2023-01-07T01:51:55.027Z,101153.00
2023-01-07T01:54:21.751Z,101143.47
2023-01-07T01:56:51.034Z,101143.03
2023-01-07T01:59:20.798Z,101145.34
2023-01-07T02:01:47.993Z,101134.13
2023-01-07T02:04:19.654Z,101138.59
2023-01-07T02:07:10.279Z,101139.84
2023-01-07T02:09:36.719Z,101141.97
2023-01-07T02:12:21.820Z,101146.88
2023-01-07T02:14:54.184Z,101135.41
2023-01-07T02:17:47.738Z,101133.28
2023-01-07T02:20:26.363Z,101121.41
2023-01-07T02:26:05.681Z,101109.53
2023-01-07T02:28:35.070Z,101112.50
2023-01-07T02:31:16.717Z,101112.94
2023-01-07T02:33:55.034Z,101106.56
2023-01-07T02:36:44.372Z,101115.03
2023-01-07T02:39:38.163Z,101113.38
2023-01-07T02:42:09.961Z,101111.44
2023-01-07T02:44:53.533Z,101106.16
2023-01-07T02:47:29.493Z,101113.16
2023-01-07T02:49:55.909Z,101103.19
2023-01-07T02:52:28.013Z,101109.53
2023-01-07T02:55:12.433Z,101108.91
2023-01-07T02:57:53.449Z,101095.97
2023-01-07T03:00:45.358Z,101110.81
2023-01-07T03:03:27.547Z,101093.44
2023-01-07T03:06:18.391Z,101098.94
2023-01-07T03:09:09.652Z,101098.72
2023-01-07T03:11:49.560Z,101086.63
2023-01-07T03:14:22.829Z,101093.84
2023-01-07T03:17:00.210Z,101095.56
2023-01-07T03:19:31.453Z,101090.91
2023-01-07T03:22:01.190Z,101081.53
2023-01-07T03:24:31.203Z,101076.03
2023-01-07T03:26:59.811Z,101077.31
2023-01-07T03:29:26.754Z,101081.56
2023-01-07T03:32:14.215Z,101077.94
2023-01-07T03:34:42.419Z,101084.09
2023-01-07T03:37:15.953Z,101080.47
2023-01-07T03:39:44.030Z,101079.00
2023-01-07T03:42:30.715Z,101080.91
2023-01-07T03:44:58.377Z,101083.03
2023-01-07T03:47:25.817Z,101081.53
2023-01-07T03:49:52.222Z,101083.25
2023-01-07T03:52:18.602Z,101077.31
2023-01-07T03:54:44.984Z,101074.34
2023-01-07T03:57:11.352Z,101078.56
2023-01-07T03:59:37.754Z,101080.28
2023-01-07T04:02:04.172Z,101072.63
2023-01-07T04:04:32.309Z,101068.38
2023-01-07T04:06:58.760Z,101055.69
2023-01-07T04:09:25.134Z,101055.69
2023-01-07T04:11:51.544Z,101060.34
2023-01-07T04:14:17.946Z,101051.44
2023-01-07T04:16:44.443Z,101062.44
2023-01-07T04:19:11.017Z,101055.03
2023-01-07T04:21:37.424Z,101046.75
2023-01-07T04:24:04.064Z,101045.50
2023-01-07T04:26:32.065Z,101037.03
2023-01-07T04:28:58.457Z,101039.97
2023-01-07T04:31:24.847Z,101032.38
2023-01-07T04:33:51.190Z,101032.78
2023-01-07T04:36:17.642Z,101032.16
2023-01-07T04:38:44.057Z,101025.59
2023-01-07T04:41:10.494Z,101024.94
2023-01-07T04:43:37.215Z,101021.31
2023-01-07T04:46:04.441Z,101017.31
2023-01-07T04:48:30.963Z,101016.25
2023-01-07T04:50:57.485Z,101018.16
2023-01-07T04:53:24.238Z,101019.66
2023-01-07T04:55:50.762Z,101023.47
2023-01-07T04:58:17.301Z,101012.03
2023-01-07T05:00:45.318Z,101015.84
2023-01-07T05:03:12.103Z,101007.78
2023-01-07T05:05:38.522Z,100999.50
2023-01-07T05:08:05.269Z,101005.03
2023-01-07T05:10:32.905Z,100995.09
2023-01-07T05:12:59.395Z,100999.75
2023-01-07T05:15:25.815Z,100997.19
2023-01-07T05:17:52.196Z,100982.81
2023-01-07T05:20:18.688Z,100987.25
2023-01-07T05:22:46.327Z,100976.25
2023-01-07T05:25:12.766Z,100978.56
2023-01-07T05:27:39.405Z,100971.78
2023-01-07T05:30:06.573Z,100969.63
2023-01-07T05:32:33.008Z,100973.03
2023-01-07T05:34:59.432Z,100971.34
2023-01-07T05:37:25.870Z,100986.19
2023-01-07T05:39:52.241Z,100978.56
2023-01-07T05:42:18.628Z,100977.47
2023-01-07T05:44:45.109Z,100970.28
2023-01-07T05:47:11.502Z,100969.63
2023-01-07T05:49:37.893Z,100972.19
2023-01-07T05:52:04.451Z,100960.53
2023-01-07T05:54:30.876Z,100965.41
2023-01-07T05:56:57.280Z,100956.94
2023-01-07T05:59:23.662Z,100957.34
2023-01-07T06:01:50.145Z,100958.19
2023-01-07T06:04:16.577Z,100951.41
2023-01-07T06:06:42.975Z,100955.22
2023-01-07T06:09:10.819Z,100947.59
2023-01-07T06:11:37.315Z,100946.50
2023-01-07T06:14:03.707Z,100942.94
2023-01-07T06:16:30.186Z,100947.16
2023-01-07T06:18:56.697Z,100935.47
2023-01-07T06:21:23.086Z,100931.06
2023-01-07T06:23:49.550Z,100921.06
2023-01-07T06:26:15.988Z,100922.38
2023-01-07T06:28:42.387Z,100926.59
2023-01-07T06:31:10.763Z,100925.53
2023-01-07T06:33:37.953Z,100920.88
2023-01-07T06:36:05.025Z,100923.84
2023-01-07T06:38:31.419Z,100906.69
2023-01-07T06:41:02.088Z,100906.44
2023-01-07T06:43:29.224Z,100904.75
2023-01-07T06:45:56.216Z,100897.34
2023-01-07T06:48:22.675Z,100896.28
2023-01-07T06:50:49.125Z,100900.94
2023-01-07T06:53:15.561Z,100896.28
2023-01-07T06:55:48.944Z,100891.63
2023-01-07T06:58:16.211Z,100894.13
2023-01-07T07:00:42.623Z,100894.13
2023-01-07T07:03:09.443Z,100891.38
2023-01-07T07:05:36.204Z,100891.19
2023-01-07T07:08:02.659Z,100898.81
2023-01-07T07:10:29.029Z,100887.41
2023-01-07T07:12:55.425Z,100884.00
2023-01-07T07:15:21.818Z,100878.94
2023-01-07T07:17:48.392Z,100885.72
2023-01-07T07:20:14.826Z,100885.72
2023-01-07T07:22:48.335Z,100884.88
2023-01-07T07:25:15.177Z,100883.19
2023-01-07T07:27:45.253Z,100878.09
2023-01-07T07:30:12.803Z,100876.41
2023-01-07T07:32:39.274Z,100868.13
2023-01-07T07:35:06.036Z,100862.63
2023-01-07T07:37:32.460Z,100855.00
2023-01-07T07:39:58.853Z,100853.06
2023-01-07T07:42:25.302Z,100849.06
2023-01-07T07:44:51.660Z,100849.47
2023-01-07T07:47:18.513Z,100848.59
2023-01-07T07:49:44.885Z,100843.03
2023-01-07T07:52:11.308Z,100839.81
2023-01-07T07:54:37.732Z,100843.59
2023-01-07T07:57:04.578Z,100840.63
2023-01-07T07:59:31.087Z,100833.81
2023-01-07T08:01:57.608Z,100828.31
2023-01-07T08:04:24.063Z,100828.31
2023-01-07T08:06:50.492Z,100831.31
2023-01-07T08:09:16.870Z,100828.97
2023-01-07T08:11:43.303Z,100821.13
2023-01-07T08:14:10.312Z,100820.97
2023-01-07T08:16:36.795Z,100818.63
2023-01-07T08:19:03.306Z,100816.56
2023-01-07T08:21:29.740Z,100816.56
2023-01-07T08:23:56.247Z,100812.31
2023-01-07T08:26:23.018Z,100803.84
2023-01-07T08:28:49.524Z,100808.50
2023-01-07T08:31:16.008Z,100796.63
2023-01-07T08:33:42.509Z,100793.25
2023-01-07T08:36:21.988Z,100788.59
2023-01-07T08:38:51.623Z,100783.91
2023-01-07T08:41:18.096Z,100772.47
2023-01-07T08:43:45.071Z,100771.41
2023-01-07T08:46:11.572Z,100773.31
2023-01-07T08:48:40.124Z,100766.56
2023-01-07T08:51:07.244Z,100769.72
2023-01-07T08:53:33.733Z,100770.38
2023-01-07T08:56:00.189Z,100772.28
2023-01-07T08:58:26.729Z,100765.06
2023-01-07T09:00:53.371Z,100758.69
2023-01-07T09:03:19.937Z,100757.63
2023-01-07T09:05:46.945Z,100757.00
2023-01-07T09:08:13.376Z,100753.38
2023-01-07T09:10:39.711Z,100754.22
2023-01-07T09:13:06.157Z,100753.34
2023-01-07T09:15:32.607Z,100759.94
2023-01-07T09:17:59.111Z,100744.84
2023-01-07T09:20:25.554Z,100734.22
2023-01-07T09:22:51.981Z,100737.38
2023-01-07T09:25:18.360Z,100731.03
2023-01-07T09:27:45.772Z,100737.78
2023-01-07T09:30:13.219Z,100740.16
2023-01-07T09:32:39.668Z,100748.19
2023-01-07T09:35:06.893Z,100743.28
2023-01-07T09:37:33.447Z,100749.81
2023-01-07T09:40:01.226Z,100743.03
2023-01-07T09:42:40.763Z,100745.94
2023-01-07T09:45:36.290Z,100737.69
2023-01-07T09:48:09.958Z,100730.88
2023-01-07T09:51:01.930Z,100725.81
2023-01-07T09:53:50.774Z,100719.63
2023-01-07T09:56:26.803Z,100728.91
2023-01-07T09:58:54.583Z,100722.53
2023-01-07T10:01:28.857Z,100720.81
2023-01-07T10:04:22.868Z,100709.25
2023-01-07T10:06:58.054Z,100710.44
2023-01-07T10:09:38.673Z,100698.97
2023-01-07T10:12:25.858Z,100688.53
2023-01-07T10:15:04.637Z,100710.59
2023-01-07T10:17:49.925Z,100697.69
2023-01-07T10:20:34.920Z,100689.53
2023-01-07T10:23:11.674Z,100690.66
2023-01-07T10:25:59.910Z,100688.22
2023-01-07T10:28:36.668Z,100689.56
2023-01-07T10:31:05.360Z,100689.19
2023-01-07T10:33:33.386Z,100679.25
2023-01-07T10:36:15.603Z,100672.72
2023-01-07T10:38:47.161Z,100671.03
2023-01-07T10:41:28.752Z,100667.84
2023-01-07T10:44:35.496Z,100663.78
2023-01-07T10:47:21.805Z,100658.84
2023-01-07T10:50:00.144Z,100660.94
2023-01-07T10:52:47.607Z,100651.56
2023-01-07T10:55:39.050Z,100627.50
2023-01-07T10:58:10.109Z,100625.44
2023-01-07T11:00:39.541Z,100618.69
2023-01-07T11:03:19.575Z,100614.28
2023-01-07T11:05:48.360Z,100622.06
2023-01-07T11:08:32.489Z,100623.50
2023-01-07T11:10:59.303Z,100606.28
2023-01-07T11:13:30.271Z,100606.34
2023-01-07T11:16:02.125Z,100597.31
2023-01-07T11:18:50.409Z,100593.50
2023-01-07T11:21:42.921Z,100588.81
2023-01-07T11:24:31.581Z,100587.59
2023-01-07T11:27:14.426Z,100578.25
2023-01-07T11:30:00.424Z,100578.69
2023-01-07T11:32:31.876Z,100571.25
2023-01-07T11:35:01.053Z,100571.03
2023-01-07T11:37:40.386Z,100567.59
2023-01-07T11:40:12.881Z,100567.31
2023-01-07T11:42:59.603Z,100552.94
2023-01-07T11:45:35.208Z,100537.91
2023-01-07T11:48:16.821Z,100531.22
2023-01-07T11:50:55.394Z,100539.97
2023-01-07T11:53:25.231Z,100529.78
2023-01-07T11:55:59.505Z,100528.66
2023-01-07T11:58:30.991Z,100513.19
2023-01-07T12:01:10.248Z,100517.03
2023-01-07T12:03:43.262Z,100506.00
2023-01-07T12:06:18.810Z,100494.09
2023-01-07T12:09:03.097Z,100490.50
2023-01-07T12:11:32.705Z,100492.50
2023-01-07T12:14:07.567Z,100487.31
2023-01-07T12:16:36.342Z,100469.69
2023-01-07T12:19:22.609Z,100469.69
2023-01-07T12:22:04.185Z,100467.78
2023-01-07T12:24:59.594Z,100461.41
2023-01-07T12:27:40.083Z,100463.16
2023-01-07T12:30:34.888Z,100454.28
2023-01-07T12:33:14.881Z,100447.34
2023-01-07T12:35:48.473Z,100443.63
2023-01-07T12:38:26.189Z,100438.25
2023-01-07T12:41:02.646Z,100435.50
2023-01-07T12:43:45.098Z,100438.38
2023-01-07T12:46:16.473Z,100434.16
2023-01-07T12:49:14.307Z,100430.09
2023-01-07T12:51:48.339Z,100421.56
2023-01-07T12:54:35.772Z,100424.09
2023-01-07T12:57:16.865Z,100413.78
2023-01-07T13:00:04.951Z,100416.97
2023-01-07T13:02:40.126Z,100408.47
2023-01-07T13:05:17.998Z,100402.72
2023-01-07T13:07:54.788Z,100397.66
2023-01-07T13:10:41.919Z,100412.19
2023-01-07T13:13:21.376Z,100407.75
2023-01-07T13:15:48.273Z,100414.59
2023-01-07T13:18:17.388Z,100398.41
2023-01-07T13:21:13.060Z,100402.59
2023-01-07T13:24:19.127Z,100395.00
2023-01-07T13:27:09.492Z,100401.75
2023-01-07T13:30:02.547Z,100392.25
2023-01-07T13:33:02.469Z,100396.69
2023-01-07T13:35:47.543Z,100396.69
2023-01-07T13:38:13.903Z,100392.63
2023-01-07T13:41:22.488Z,100399.31
2023-01-07T13:44:04.153Z,100383.13
2023-01-07T13:46:36.696Z,100376.91
2023-01-07T13:49:03.669Z,100372.94
2023-01-07T13:51:36.703Z,100379.56
2023-01-07T13:54:03.778Z,100367.03
2023-01-07T13:56:34.003Z,100389.13
2023-01-07T13:59:01.049Z,100375.94
2023-01-07T14:01:35.722Z,100374.47
2023-01-07T14:04:06.868Z,100385.41
2023-01-07T14:06:39.554Z,100375.22
2023-01-07T14:09:13.624Z,100386.72
2023-01-07T14:11:50.286Z,100372.94
2023-01-07T14:14:26.246Z,100374.38
2023-01-07T14:17:08.297Z,100381.94
2023-01-07T14:19:46.203Z,100410.47
2023-01-07T14:22:43.121Z,100374.06
2023-01-07T14:26:03.716Z,100364.41
2023-01-07T14:28:55.473Z,100362.00
2023-01-07T14:31:28.368Z,100360.44
2023-01-07T14:33:58.682Z,100363.22
2023-01-07T14:37:06.440Z,100357.31
2023-01-07T14:39:36.863Z,100350.47
2023-01-07T14:42:21.447Z,100350.75
2023-01-07T14:44:51.724Z,100346.66
2023-01-07T14:47:41.099Z,100356.38
2023-01-07T14:50:32.860Z,100354.72
2023-01-07T14:53:37.247Z,100345.81
2023-01-07T14:56:39.045Z,100337.31
2023-01-07T14:59:23.112Z,100347.50
2023-01-07T15:02:20.390Z,100348.72
2023-01-07T15:05:23.113Z,100347.38
2023-01-07T15:08:20.684Z,100345.31
2023-01-07T15:11:09.193Z,100329.50
2023-01-07T15:14:02.052Z,100327.94
2023-01-07T15:16:34.375Z,100332.38
2023-01-07T15:19:00.984Z,100325.06
2023-01-07T15:21:54.679Z,100334.53
2023-01-07T15:24:48.310Z,100316.53
2023-01-07T15:27:27.836Z,100325.44
2023-01-07T15:30:16.537Z,100315.13
2023-01-07T15:33:14.306Z,100312.94
2023-01-07T15:35:42.989Z,100303.69
2023-01-07T15:38:28.792Z,100305.38
2023-01-07T15:40:56.965Z,100311.38
2023-01-07T15:43:26.647Z,100316.75
2023-01-07T15:46:07.863Z,100290.56
2023-01-07T15:48:34.371Z,100297.53
2023-01-07T15:51:00.811Z,100295.13
2023-01-07T15:53:29.387Z,100300.03
2023-01-07T15:56:01.682Z,100294.16
2023-01-07T15:58:40.687Z,100293.59
2023-01-07T16:01:13.928Z,100296.38
2023-01-07T16:03:42.456Z,100291.91
2023-01-07T16:06:30.520Z,100293.72
2023-01-07T16:08:58.184Z,100292.03
2023-01-07T16:11:27.417Z,100279.31
2023-01-07T16:13:59.462Z,100278.94
2023-01-07T16:16:27.364Z,100269.81
2023-01-07T16:18:58.208Z,100263.72
2023-01-07T16:21:33.071Z,100269.22
2023-01-07T16:23:59.542Z,100268.16
2023-01-07T16:26:39.696Z,100264.19
2023-01-07T16:29:26.587Z,100254.44
2023-01-07T16:31:54.136Z,100257.00
2023-01-07T16:34:23.399Z,100257.84
2023-01-07T16:36:53.587Z,100248.34
2023-01-07T16:39:24.522Z,100244.75
2023-01-07T16:42:11.436Z,100239.47
2023-01-07T16:44:46.841Z,100237.66
2023-01-07T16:47:27.904Z,100241.94
2023-01-07T16:49:58.780Z,100233.09
2023-01-07T16:52:34.247Z,100234.16
2023-01-07T16:55:00.774Z,100226.59
2023-01-07T16:57:33.358Z,100226.47
2023-01-07T17:00:03.731Z,100234.94
2023-01-07T17:02:42.390Z,100234.94
2023-01-07T17:05:21.361Z,100248.34
2023-01-07T17:07:52.271Z,100237.56
2023-01-07T17:10:29.431Z,100236.13
2023-01-07T17:13:11.149Z,100227.47
2023-01-07T17:15:41.278Z,100225.78
2023-01-07T17:18:11.027Z,100228.78
2023-01-07T17:20:48.674Z,100214.19
2023-01-07T17:23:27.307Z,100219.53
2023-01-07T17:26:06.022Z,100216.78
2023-01-07T17:28:36.137Z,100219.53
2023-01-07T17:31:02.783Z,100213.81
2023-01-07T17:33:29.268Z,100210.59
2023-01-07T17:35:57.386Z,100207.59
2023-01-07T17:38:23.957Z,100221.13
2023-01-07T17:40:50.540Z,100213.72
2023-01-07T17:43:37.496Z,100204.38
2023-01-07T17:46:10.790Z,100207.13
2023-01-07T17:48:37.913Z,100209.25
2023-01-07T17:51:05.896Z,100198.88
2023-01-07T17:53:34.154Z,100195.00
2023-01-07T17:56:01.843Z,100197.78
2023-01-07T17:58:33.885Z,100193.94
2023-01-07T18:01:05.473Z,100204.97
2023-01-07T18:03:31.980Z,100196.72
2023-01-07T18:05:58.429Z,100193.09
2023-01-07T18:08:25.185Z,100183.19
2023-01-07T18:11:12.407Z,100178.75
2023-01-07T18:13:38.937Z,100172.59
2023-01-07T18:16:06.292Z,100188.69
2023-01-07T18:18:32.828Z,100182.94
2023-01-07T18:20:59.209Z,100185.09
2023-01-07T18:23:25.691Z,100184.00
2023-01-07T18:25:52.247Z,100185.09
2023-01-07T18:28:18.643Z,100180.19
2023-01-07T18:30:45.113Z,100176.56
2023-01-07T18:33:11.767Z,100176.84
2023-01-07T18:35:42.201Z,100170.22
2023-01-07T18:38:16.093Z,100163.06
2023-01-07T18:40:43.559Z,100168.56
2023-01-07T18:43:18.344Z,100154.53
2023-01-07T18:45:46.752Z,100138.63
2023-01-07T18:48:14.971Z,100122.69
2023-01-07T18:50:47.321Z,100126.91
2023-01-07T18:53:14.151Z,100134.91
2023-01-07T18:55:42.136Z,100145.72
2023-01-07T18:58:10.789Z,100151.81
2023-01-07T19:00:37.327Z,100173.88
2023-01-07T19:03:03.859Z,100169.78
2023-01-07T19:05:30.525Z,100178.53
2023-01-07T19:07:57.068Z,100174.72
2023-01-07T19:10:24.827Z,100171.38
2023-01-07T19:12:52.292Z,100155.66
2023-01-07T19:15:18.877Z,100148.94
2023-01-07T19:17:45.281Z,100140.06
2023-01-07T19:20:14.840Z,100137.09
2023-01-07T19:22:41.245Z,100168.94
2023-01-07T19:25:08.320Z,100147.75
2023-01-07T19:27:34.813Z,100142.09
2023-01-07T19:30:01.194Z,100134.28
2023-01-07T19:32:30.207Z,100149.50
2023-01-07T19:34:56.589Z,100156.34
2023-01-07T19:37:23.047Z,100168.41
2023-01-07T19:39:49.454Z,100170.59
2023-01-07T19:42:15.914Z,100167.81
2023-01-07T19:44:42.342Z,100158.94
2023-01-07T19:47:09.406Z,100149.63
2023-01-07T19:49:36.180Z,100146.84
2023-01-07T19:52:02.688Z,100150.19
2023-01-07T19:54:29.039Z,100148.66
2023-01-07T19:56:55.404Z,100145.44
2023-01-07T19:59:22.564Z,100147.75
2023-01-07T20:01:49.841Z,100153.63
2023-01-07T20:04:16.425Z,100167.13
2023-01-07T20:06:43.458Z,100157.81
2023-01-07T20:09:12.775Z,100160.72
2023-01-07T20:11:39.671Z,100170.88
2023-01-07T20:14:07.420Z,100160.72
2023-01-07T20:16:36.289Z,100177.34
2023-01-07T20:19:03.507Z,100176.88
2023-01-07T20:21:29.988Z,100170.78
2023-01-07T20:23:56.420Z,100174.97
2023-01-07T20:26:26.229Z,100161.81
2023-01-07T20:28:52.842Z,100157.34
2023-01-07T20:31:21.490Z,100158.22
2023-01-07T20:33:49.273Z,100149.94
2023-01-07T20:36:20.858Z,100143.94
2023-01-07T20:38:47.917Z,100139.66
2023-01-07T20:41:22.417Z,100135.81
2023-01-07T20:43:54.008Z,100144.31
2023-01-07T20:46:21.177Z,100146.84
2023-01-07T20:48:47.754Z,100153.41
2023-01-07T20:51:15.522Z,100152.34
2023-01-07T20:53:42.779Z,100151.88
2023-01-07T20:56:10.142Z,100140.84
2023-01-07T20:58:38.001Z,100142.06
2023-01-07T21:01:07.438Z,100142.06
2023-01-07T21:03:35.075Z,100134.84
2023-01-07T21:06:01.857Z,100133.88
2023-01-07T21:08:30.767Z,100125.41
2023-01-07T21:10:57.195Z,100127.31
2023-01-07T21:13:24.118Z,100115.22
2023-01-07T21:15:51.334Z,100113.88
2023-01-07T21:18:17.841Z,100120.25
2023-01-07T21:20:44.909Z,100130.06
2023-01-07T21:23:11.393Z,100132.25
2023-01-07T21:25:38.295Z,100122.41
2023-01-07T21:28:06.582Z,100115.94
2023-01-07T21:30:33.697Z,100114.03
2023-01-07T21:33:00.110Z,100120.97
2023-01-07T21:35:26.619Z,100112.47
2023-01-07T21:37:54.285Z,100106.94
2023-01-07T21:40:21.739Z,100111.63
2023-01-07T21:42:48.277Z,100101.66
2023-01-07T21:45:14.973Z,100115.44
2023-01-07T21:47:41.808Z,100106.34
2023-01-07T21:50:09.005Z,100111.63
2023-01-07T21:52:35.780Z,100112.25
2023-01-07T21:55:02.423Z,100119.66
2023-01-07T21:57:28.795Z,100121.34
2023-01-07T21:59:55.187Z,100099.91
2023-01-07T22:02:21.718Z,100095.81
2023-01-07T22:04:48.459Z,100099.78
2023-01-07T22:07:17.121Z,100088.13
2023-01-07T22:09:44.397Z,100083.47
2023-01-07T22:12:11.853Z,100082.63
2023-01-07T22:14:38.983Z,100068.25
2023-01-07T22:17:06.645Z,100070.38
2023-01-07T22:19:33.235Z,100075.09
2023-01-07T22:21:59.662Z,100083.59
2023-01-07T22:24:26.058Z,100089.47
2023-01-07T22:26:52.785Z,100086.94
2023-01-07T22:29:19.227Z,100085.28
2023-01-07T22:31:50.814Z,100081.41
2023-01-07T22:34:17.442Z,100084.66
2023-01-07T22:37:01.410Z,100086.81
2023-01-07T22:39:30.895Z,100087.88
2023-01-07T22:42:02.866Z,100077.91
2023-01-07T22:44:36.653Z,100095.31
2023-01-07T22:47:06.350Z,100088.84
2023-01-07T22:49:33.227Z,100088.50
2023-01-07T22:51:59.738Z,100095.44
2023-01-07T22:54:26.552Z,100087.78
2023-01-07T22:56:53.703Z,100080.31
2023-01-07T22:59:20.099Z,100075.66
2023-01-07T23:01:46.552Z,100067.16
2023-01-07T23:04:13.232Z,100060.78
2023-01-07T23:06:39.690Z,100066.78
2023-01-07T23:09:06.137Z,100069.28
2023-01-07T23:11:48.536Z,100057.91
2023-01-07T23:14:20.310Z,100036.47
2023-01-07T23:16:46.965Z,100040.53
2023-01-07T23:19:14.347Z,100039.94
2023-01-07T23:21:43.291Z,100050.38
2023-01-07T23:24:11.264Z,100058.53
2023-01-07T23:26:38.300Z,100038.59
2023-01-07T23:29:05.316Z,100040.66
2023-01-07T23:31:33.612Z,100030.72
2023-01-07T23:34:00.735Z,100028.41
2023-01-07T23:36:27.603Z,100020.06
2023-01-07T23:38:54.254Z,100007.13
2023-01-07T23:41:20.876Z,100000.16
2023-01-07T23:43:48.359Z,100005.94
2023-01-07T23:46:15.149Z,99999.94
2023-01-07T23:48:41.614Z,99997.88
2023-01-07T23:51:10.569Z,100006.16
2023-01-07T23:53:37.375Z,99996.69
2023-01-07T23:56:04.801Z,100003.25
2023-01-07T23:58:31.998Z,100001.84
